sensor_id;sensor_type;location;lat;lon;timestamp;pressure;altitude;pressure_sealevel;temperature;humidity
66945;BME280;53853;51.982;5.928;2023-05-03T00:00:47;102857.25;;;7.92;58.32
66945;BME280;53853;51.982;5.928;2023-05-03T00:03:20;102855.44;;;7.93;58.02
66945;BME280;53853;51.982;5.928;2023-05-03T00:05:50;102860.94;;;7.90;58.70
66945;BME280;53853;51.982;5.928;2023-05-03T00:08:20;102863.69;;;7.88;58.76
66945;BME280;53853;51.982;5.928;2023-05-03T00:10:50;102860.16;;;7.88;58.49
66945;BME280;53853;51.982;5.928;2023-05-03T00:13:20;102857.50;;;7.88;58.26
66945;BME280;53853;51.982;5.928;2023-05-03T00:15:50;102856.81;;;7.84;59.01
66945;BME280;53853;51.982;5.928;2023-05-03T00:18:22;102865.72;;;7.83;59.32
66945;BME280;53853;51.982;5.928;2023-05-03T00:20:52;102856.13;;;7.80;59.28
66945;BME280;53853;51.982;5.928;2023-05-03T00:23:23;102853.72;;;7.76;59.32
66945;BME280;53853;51.982;5.928;2023-05-03T00:25:54;102856.47;;;7.74;58.96
66945;BME280;53853;51.982;5.928;2023-05-03T00:28:24;102853.00;;;7.72;58.48
66945;BME280;53853;51.982;5.928;2023-05-03T00:30:54;102851.47;;;7.68;58.56
66945;BME280;53853;51.982;5.928;2023-05-03T00:33:27;102856.78;;;7.68;58.18
66945;BME280;53853;51.982;5.928;2023-05-03T00:35:57;102852.47;;;7.66;58.22
66945;BME280;53853;51.982;5.928;2023-05-03T00:38:27;102857.78;;;7.66;58.22
66945;BME280;53853;51.982;5.928;2023-05-03T00:40:57;102848.28;;;7.61;58.72
66945;BME280;53853;51.982;5.928;2023-05-03T00:43:27;102856.25;;;7.61;58.43
66945;BME280;53853;51.982;5.928;2023-05-03T00:45:58;102855.53;;;7.58;58.61
66945;BME280;53853;51.982;5.928;2023-05-03T00:48:32;102853.03;;;7.55;58.60
66945;BME280;53853;51.982;5.928;2023-05-03T00:51:02;102856.56;;;7.55;58.62
66945;BME280;53853;51.982;5.928;2023-05-03T00:53:34;102848.78;;;7.52;58.73
66945;BME280;53853;51.982;5.928;2023-05-03T00:56:05;102858.63;;;7.50;58.73
66945;BME280;53853;51.982;5.928;2023-05-03T00:58:35;102852.50;;;7.48;58.64
66945;BME280;53853;51.982;5.928;2023-05-03T01:01:06;102858.94;;;7.44;59.03
66945;BME280;53853;51.982;5.928;2023-05-03T01:03:39;102852.81;;;7.42;59.15
66945;BME280;53853;51.982;5.928;2023-05-03T01:06:14;102860.84;;;7.40;58.91
66945;BME280;53853;51.982;5.928;2023-05-03T01:08:53;102855.78;;;7.36;59.60
66945;BME280;53853;51.982;5.928;2023-05-03T01:11:30;102844.41;;;7.34;59.95
66945;BME280;53853;51.982;5.928;2023-05-03T01:14:08;102852.38;;;7.34;59.54
66945;BME280;53853;51.982;5.928;2023-05-03T01:16:42;102843.56;;;7.33;59.94
66945;BME280;53853;51.982;5.928;2023-05-03T01:19:25;102846.22;;;7.33;59.99
66945;BME280;53853;51.982;5.928;2023-05-03T01:22:08;102850.81;;;7.30;60.74
66945;BME280;53853;51.982;5.928;2023-05-03T01:24:41;102850.91;;;7.28;60.81
66945;BME280;53853;51.982;5.928;2023-05-03T01:27:17;102857.97;;;7.28;60.70
66945;BME280;53853;51.982;5.928;2023-05-03T01:29:47;102858.94;;;7.27;60.85
66945;BME280;53853;51.982;5.928;2023-05-03T01:32:24;102857.38;;;7.22;61.42
66945;BME280;53853;51.982;5.928;2023-05-03T01:35:02;102866.31;;;7.20;61.00
66945;BME280;53853;51.982;5.928;2023-05-03T01:37:33;102866.41;;;7.18;61.09
66945;BME280;53853;51.982;5.928;2023-05-03T01:40:07;102863.75;;;7.18;60.94
66945;BME280;53853;51.982;5.928;2023-05-03T01:42:40;102864.94;;;7.13;61.20
66945;BME280;53853;51.982;5.928;2023-05-03T01:45:10;102868.59;;;7.10;61.37
66945;BME280;53853;51.982;5.928;2023-05-03T01:47:40;102869.69;;;7.06;61.66
66945;BME280;53853;51.982;5.928;2023-05-03T01:50:10;102868.91;;;7.04;61.62
66945;BME280;53853;51.982;5.928;2023-05-03T01:52:40;102860.09;;;7.03;61.33
66945;BME280;53853;51.982;5.928;2023-05-03T01:55:11;102852.06;;;7.05;61.07
66945;BME280;53853;51.982;5.928;2023-05-03T01:57:43;102860.00;;;7.05;61.03
66945;BME280;53853;51.982;5.928;2023-05-03T02:00:14;102857.50;;;7.02;61.71
66945;BME280;53853;51.982;5.928;2023-05-03T02:02:44;102851.38;;;7.01;61.19
66945;BME280;53853;51.982;5.928;2023-05-03T02:05:14;102859.47;;;6.98;61.63
66945;BME280;53853;51.982;5.928;2023-05-03T02:07:44;102855.00;;;6.99;61.36
66945;BME280;53853;51.982;5.928;2023-05-03T02:10:14;102855.94;;;6.98;61.44
66945;BME280;53853;51.982;5.928;2023-05-03T02:12:46;102852.50;;;6.96;61.67
66945;BME280;53853;51.982;5.928;2023-05-03T02:15:17;102855.25;;;6.94;61.92
66945;BME280;53853;51.982;5.928;2023-05-03T02:17:47;102859.69;;;6.94;62.02
66945;BME280;53853;51.982;5.928;2023-05-03T02:20:18;102863.28;;;6.93;61.97
66945;BME280;53853;51.982;5.928;2023-05-03T02:22:47;102858.13;;;6.89;62.80
66945;BME280;53853;51.982;5.928;2023-05-03T02:25:19;102859.06;;;6.88;62.23
66945;BME280;53853;51.982;5.928;2023-05-03T02:27:51;102866.16;;;6.88;62.40
66945;BME280;53853;51.982;5.928;2023-05-03T02:30:21;102852.97;;;6.86;62.41
66945;BME280;53853;51.982;5.928;2023-05-03T02:32:51;102838.88;;;6.86;62.23
66945;BME280;53853;51.982;5.928;2023-05-03T02:35:21;102853.13;;;6.83;62.29
66945;BME280;53853;51.982;5.928;2023-05-03T02:37:52;102846.97;;;6.83;62.00
66945;BME280;53853;51.982;5.928;2023-05-03T02:40:22;102844.41;;;6.81;62.35
66945;BME280;53853;51.982;5.928;2023-05-03T02:42:55;102843.53;;;6.81;62.43
66945;BME280;53853;51.982;5.928;2023-05-03T02:45:28;102841.97;;;6.77;62.91
66945;BME280;53853;51.982;5.928;2023-05-03T02:47:58;102839.41;;;6.75;62.83
66945;BME280;53853;51.982;5.928;2023-05-03T02:50:28;102838.63;;;6.73;62.71
66945;BME280;53853;51.982;5.928;2023-05-03T02:52:58;102843.91;;;6.73;62.59
66945;BME280;53853;51.982;5.928;2023-05-03T02:55:28;102836.97;;;6.70;62.75
66945;BME280;53853;51.982;5.928;2023-05-03T02:58:01;102837.03;;;6.69;62.68
66945;BME280;53853;51.982;5.928;2023-05-03T03:00:31;102830.81;;;6.70;62.08
66945;BME280;53853;51.982;5.928;2023-05-03T03:03:00;102834.38;;;6.69;62.10
66945;BME280;53853;51.982;5.928;2023-05-03T03:05:30;102826.38;;;6.70;61.66
66945;BME280;53853;51.982;5.928;2023-05-03T03:08:00;102825.53;;;6.70;61.59
66945;BME280;53853;51.982;5.928;2023-05-03T03:10:30;102822.88;;;6.70;61.44
66945;BME280;53853;51.982;5.928;2023-05-03T03:13:03;102825.53;;;6.70;61.31
66945;BME280;53853;51.982;5.928;2023-05-03T03:15:37;102808.78;;;6.69;61.00
66945;BME280;53853;51.982;5.928;2023-05-03T03:18:07;102802.75;;;6.66;61.25
66945;BME280;53853;51.982;5.928;2023-05-03T03:20:37;102800.16;;;6.64;61.24
66945;BME280;53853;51.982;5.928;2023-05-03T03:23:07;102801.19;;;6.62;61.64
66945;BME280;53853;51.982;5.928;2023-05-03T03:25:37;102794.25;;;6.59;61.92
66945;BME280;53853;51.982;5.928;2023-05-03T03:28:09;102806.81;;;6.56;62.26
66945;BME280;53853;51.982;5.928;2023-05-03T03:30:39;102810.50;;;6.51;62.77
66945;BME280;53853;51.982;5.928;2023-05-03T03:33:23;102815.03;;;6.49;62.58
66945;BME280;53853;51.982;5.928;2023-05-03T03:35:59;102815.13;;;6.48;62.63
66945;BME280;53853;51.982;5.928;2023-05-03T03:38:35;102822.13;;;6.49;62.39
66945;BME280;53853;51.982;5.928;2023-05-03T03:41:08;102821.25;;;6.48;62.44
66945;BME280;53853;51.982;5.928;2023-05-03T03:43:41;102828.44;;;6.46;62.73
66945;BME280;53853;51.982;5.928;2023-05-03T03:46:16;102825.00;;;6.44;63.32
66945;BME280;53853;51.982;5.928;2023-05-03T03:48:49;102820.69;;;6.42;63.91
66945;BME280;53853;51.982;5.928;2023-05-03T03:51:20;102825.16;;;6.41;64.01
66945;BME280;53853;51.982;5.928;2023-05-03T03:53:51;102821.56;;;6.42;63.56
66945;BME280;53853;51.982;5.928;2023-05-03T03:56:23;102830.38;;;6.43;63.49
66945;BME280;53853;51.982;5.928;2023-05-03T03:58:58;102830.53;;;6.40;63.85
66945;BME280;53853;51.982;5.928;2023-05-03T04:01:28;102823.66;;;6.35;63.86
66945;BME280;53853;51.982;5.928;2023-05-03T04:03:58;102829.88;;;6.34;63.68
66945;BME280;53853;51.982;5.928;2023-05-03T04:06:27;102834.31;;;6.34;63.66
66945;BME280;53853;51.982;5.928;2023-05-03T04:08:59;102838.75;;;6.33;63.67
66945;BME280;53853;51.982;5.928;2023-05-03T04:11:32;102822.88;;;6.33;63.65
66945;BME280;53853;51.982;5.928;2023-05-03T04:14:06;102832.53;;;6.34;63.38
66945;BME280;53853;51.982;5.928;2023-05-03T04:16:36;102831.59;;;6.35;63.14
66945;BME280;53853;51.982;5.928;2023-05-03T04:19:07;102841.34;;;6.35;63.19
66945;BME280;53853;51.982;5.928;2023-05-03T04:21:39;102836.88;;;6.35;63.28
66945;BME280;53853;51.982;5.928;2023-05-03T04:24:13;102836.81;;;6.37;63.12
66945;BME280;53853;51.982;5.928;2023-05-03T04:26:43;102839.47;;;6.37;63.44
66945;BME280;53853;51.982;5.928;2023-05-03T04:29:22;102842.09;;;6.37;63.37
66945;BME280;53853;51.982;5.928;2023-05-03T04:31:52;102841.97;;;6.40;63.59
66945;BME280;53853;51.982;5.928;2023-05-03T04:34:22;102848.22;;;6.39;63.99
66945;BME280;53853;51.982;5.928;2023-05-03T04:36:54;102852.56;;;6.40;64.19
66945;BME280;53853;51.982;5.928;2023-05-03T04:39:26;102860.44;;;6.42;64.16
66945;BME280;53853;51.982;5.928;2023-05-03T04:41:57;102864.72;;;6.44;64.18
66945;BME280;53853;51.982;5.928;2023-05-03T04:44:30;102868.16;;;6.46;63.83
66945;BME280;53853;51.982;5.928;2023-05-03T04:47:01;102861.13;;;6.45;63.95
66945;BME280;53853;51.982;5.928;2023-05-03T04:49:31;102865.50;;;6.46;64.27
66945;BME280;53853;51.982;5.928;2023-05-03T04:52:01;102875.03;;;6.50;64.09
66945;BME280;53853;51.982;5.928;2023-05-03T04:54:31;102880.13;;;6.55;63.72
66945;BME280;53853;51.982;5.928;2023-05-03T04:57:01;102885.16;;;6.60;63.63
66945;BME280;53853;51.982;5.928;2023-05-03T04:59:34;102893.84;;;6.63;63.78
66945;BME280;53853;51.982;5.928;2023-05-03T05:02:04;102893.63;;;6.68;64.04
66945;BME280;53853;51.982;5.928;2023-05-03T05:04:35;102900.97;;;6.80;63.89
66945;BME280;53853;51.982;5.928;2023-05-03T05:07:05;102892.50;;;6.91;63.95
66945;BME280;53853;51.982;5.928;2023-05-03T05:09:34;102901.50;;;7.06;63.71
66945;BME280;53853;51.982;5.928;2023-05-03T05:12:06;102897.28;;;7.19;63.36
66945;BME280;53853;51.982;5.928;2023-05-03T05:14:42;102899.50;;;7.29;63.13
66945;BME280;53853;51.982;5.928;2023-05-03T05:17:13;102906.19;;;7.36;62.71
66945;BME280;53853;51.982;5.928;2023-05-03T05:19:43;102906.03;;;7.39;62.42
66945;BME280;53853;51.982;5.928;2023-05-03T05:22:13;102904.94;;;7.43;62.24
66945;BME280;53853;51.982;5.928;2023-05-03T05:24:48;102905.72;;;7.45;62.09
66945;BME280;53853;51.982;5.928;2023-05-03T05:27:19;102903.94;;;7.46;62.19
66945;BME280;53853;51.982;5.928;2023-05-03T05:29:52;102910.78;;;7.50;62.29
66945;BME280;53853;51.982;5.928;2023-05-03T05:32:22;102907.06;;;7.54;61.90
66945;BME280;53853;51.982;5.928;2023-05-03T05:34:52;102916.56;;;7.58;61.66
66945;BME280;53853;51.982;5.928;2023-05-03T05:37:27;102915.63;;;7.59;61.87
66945;BME280;53853;51.982;5.928;2023-05-03T05:40:00;102916.31;;;7.62;61.99
66945;BME280;53853;51.982;5.928;2023-05-03T05:42:36;102922.28;;;7.68;61.79
66945;BME280;53853;51.982;5.928;2023-05-03T05:45:10;102926.47;;;7.72;61.96
66945;BME280;53853;51.982;5.928;2023-05-03T05:47:41;102921.63;;;7.80;61.67
66945;BME280;53853;51.982;5.928;2023-05-03T05:50:11;102922.25;;;7.85;61.98
66945;BME280;53853;51.982;5.928;2023-05-03T05:52:42;102913.00;;;7.92;61.95
66945;BME280;53853;51.982;5.928;2023-05-03T05:55:17;102909.88;;;8.02;61.92
66945;BME280;53853;51.982;5.928;2023-05-03T05:57:47;102925.06;;;8.15;61.69
66945;BME280;53853;51.982;5.928;2023-05-03T06:00:23;102918.56;;;8.21;60.88
66945;BME280;53853;51.982;5.928;2023-05-03T06:02:53;102922.53;;;8.30;60.83
66945;BME280;53853;51.982;5.928;2023-05-03T06:05:23;102925.69;;;8.37;60.36
66945;BME280;53853;51.982;5.928;2023-05-03T06:07:54;102927.13;;;8.44;59.75
66945;BME280;53853;51.982;5.928;2023-05-03T06:10:23;102921.53;;;8.48;59.72
66945;BME280;53853;51.982;5.928;2023-05-03T06:12:56;102914.34;;;8.50;59.11
66945;BME280;53853;51.982;5.928;2023-05-03T06:15:30;102926.41;;;8.56;58.75
66945;BME280;53853;51.982;5.928;2023-05-03T06:18:00;102920.00;;;8.60;58.61
66945;BME280;53853;51.982;5.928;2023-05-03T06:20:30;102919.66;;;8.66;58.69
66945;BME280;53853;51.982;5.928;2023-05-03T06:23:01;102916.50;;;8.76;58.29
66945;BME280;53853;51.982;5.928;2023-05-03T06:25:31;102909.44;;;8.75;56.89
66945;BME280;53853;51.982;5.928;2023-05-03T06:28:02;102912.88;;;8.77;56.93
66945;BME280;53853;51.982;5.928;2023-05-03T06:30:37;102911.69;;;8.82;56.33
66945;BME280;53853;51.982;5.928;2023-05-03T06:33:12;102915.00;;;8.86;56.56
66945;BME280;53853;51.982;5.928;2023-05-03T06:35:46;102920.16;;;8.89;55.92
66945;BME280;53853;51.982;5.928;2023-05-03T06:38:17;102922.63;;;8.92;55.62
66945;BME280;53853;51.982;5.928;2023-05-03T06:40:47;102916.47;;;8.92;55.08
66945;BME280;53853;51.982;5.928;2023-05-03T06:43:18;102914.50;;;8.95;54.88
66945;BME280;53853;51.982;5.928;2023-05-03T06:45:54;102908.09;;;8.83;54.29
66945;BME280;53853;51.982;5.928;2023-05-03T06:48:24;102918.25;;;8.91;55.13
66945;BME280;53853;51.982;5.928;2023-05-03T06:50:54;102918.53;;;9.02;55.23
66945;BME280;53853;51.982;5.928;2023-05-03T06:53:24;102905.09;;;9.04;54.81
66945;BME280;53853;51.982;5.928;2023-05-03T06:55:54;102910.16;;;9.09;55.36
66945;BME280;53853;51.982;5.928;2023-05-03T06:58:24;102906.97;;;9.18;55.55
66945;BME280;53853;51.982;5.928;2023-05-03T07:00:57;102905.84;;;9.22;55.29
66945;BME280;53853;51.982;5.928;2023-05-03T07:03:27;102900.34;;;9.25;54.78
66945;BME280;53853;51.982;5.928;2023-05-03T07:05:57;102910.81;;;9.28;54.81
66945;BME280;53853;51.982;5.928;2023-05-03T07:08:27;102896.00;;;9.38;54.39
66945;BME280;53853;51.982;5.928;2023-05-03T07:10:58;102906.25;;;9.30;53.86
66945;BME280;53853;51.982;5.928;2023-05-03T07:13:27;102906.06;;;9.33;54.08
66945;BME280;53853;51.982;5.928;2023-05-03T07:16:00;102900.66;;;9.35;54.17
66945;BME280;53853;51.982;5.928;2023-05-03T07:18:31;102904.19;;;9.35;54.32
66945;BME280;53853;51.982;5.928;2023-05-03T07:21:00;102904.38;;;9.47;54.32
66945;BME280;53853;51.982;5.928;2023-05-03T07:23:31;102908.31;;;9.55;54.47
66945;BME280;53853;51.982;5.928;2023-05-03T07:26:01;102914.78;;;9.66;54.53
66945;BME280;53853;51.982;5.928;2023-05-03T07:28:31;102920.44;;;9.75;54.03
66945;BME280;53853;51.982;5.928;2023-05-03T07:31:03;102919.28;;;9.79;53.97
66945;BME280;53853;51.982;5.928;2023-05-03T07:33:34;102903.31;;;9.79;53.96
66945;BME280;53853;51.982;5.928;2023-05-03T07:36:04;102905.13;;;9.79;53.88
66945;BME280;53853;51.982;5.928;2023-05-03T07:38:34;102905.22;;;9.77;53.67
66945;BME280;53853;51.982;5.928;2023-05-03T07:41:05;102890.09;;;9.78;53.92
66945;BME280;53853;51.982;5.928;2023-05-03T07:43:36;102880.19;;;9.80;53.90
66945;BME280;53853;51.982;5.928;2023-05-03T07:46:08;102880.88;;;9.84;53.95
66945;BME280;53853;51.982;5.928;2023-05-03T07:48:38;102874.00;;;9.94;53.72
66945;BME280;53853;51.982;5.928;2023-05-03T07:51:08;102874.97;;;10.07;52.85
66945;BME280;53853;51.982;5.928;2023-05-03T07:53:38;102869.66;;;10.07;53.17
66945;BME280;53853;51.982;5.928;2023-05-03T07:56:08;102872.22;;;10.09;53.39
66945;BME280;53853;51.982;5.928;2023-05-03T07:58:38;102870.00;;;10.15;52.70
66945;BME280;53853;51.982;5.928;2023-05-03T08:01:10;102861.94;;;10.17;52.51
66945;BME280;53853;51.982;5.928;2023-05-03T08:03:40;102858.69;;;10.26;52.57
66945;BME280;53853;51.982;5.928;2023-05-03T08:06:10;102853.63;;;10.36;52.46
66945;BME280;53853;51.982;5.928;2023-05-03T08:08:40;102845.84;;;10.33;51.62
66945;BME280;53853;51.982;5.928;2023-05-03T08:11:10;102843.53;;;10.41;50.84
66945;BME280;53853;51.982;5.928;2023-05-03T08:13:40;102834.28;;;10.47;51.56
66945;BME280;53853;51.982;5.928;2023-05-03T08:16:12;102836.44;;;10.55;51.84
66945;BME280;53853;51.982;5.928;2023-05-03T08:18:42;102846.78;;;10.59;51.74
66945;BME280;53853;51.982;5.928;2023-05-03T08:21:12;102845.16;;;10.71;51.79
66945;BME280;53853;51.982;5.928;2023-05-03T08:23:43;102854.44;;;10.78;50.81
66945;BME280;53853;51.982;5.928;2023-05-03T08:26:13;102856.72;;;10.84;50.91
66945;BME280;53853;51.982;5.928;2023-05-03T08:28:43;102854.72;;;10.88;50.61
66945;BME280;53853;51.982;5.928;2023-05-03T08:31:15;102854.59;;;10.90;50.67
66945;BME280;53853;51.982;5.928;2023-05-03T08:33:45;102847.56;;;10.88;50.29
66945;BME280;53853;51.982;5.928;2023-05-03T08:36:15;102854.16;;;10.96;50.60
66945;BME280;53853;51.982;5.928;2023-05-03T08:38:44;102857.63;;;10.98;50.17
66945;BME280;53853;51.982;5.928;2023-05-03T08:41:20;102851.00;;;11.03;50.18
66945;BME280;53853;51.982;5.928;2023-05-03T08:43:53;102851.44;;;11.10;49.88
66945;BME280;53853;51.982;5.928;2023-05-03T08:46:27;102846.09;;;11.10;50.01
66945;BME280;53853;51.982;5.928;2023-05-03T08:48:58;102854.47;;;11.18;50.08
66945;BME280;53853;51.982;5.928;2023-05-03T08:51:28;102856.38;;;11.29;50.30
66945;BME280;53853;51.982;5.928;2023-05-03T08:53:59;102851.38;;;11.37;50.07
66945;BME280;53853;51.982;5.928;2023-05-03T08:56:32;102834.84;;;11.45;50.18
66945;BME280;53853;51.982;5.928;2023-05-03T08:59:02;102832.28;;;11.44;49.07
66945;BME280;53853;51.982;5.928;2023-05-03T09:01:39;102837.38;;;11.34;48.37
66945;BME280;53853;51.982;5.928;2023-05-03T09:04:10;102821.56;;;11.18;48.66
66945;BME280;53853;51.982;5.928;2023-05-03T09:06:41;102819.66;;;11.07;48.92
66945;BME280;53853;51.982;5.928;2023-05-03T09:09:10;102831.38;;;11.17;49.53
66945;BME280;53853;51.982;5.928;2023-05-03T09:11:41;102835.88;;;11.30;49.54
66945;BME280;53853;51.982;5.928;2023-05-03T09:14:12;102835.25;;;11.39;49.44
66945;BME280;53853;51.982;5.928;2023-05-03T09:16:46;102840.38;;;11.42;49.23
66945;BME280;53853;51.982;5.928;2023-05-03T09:19:15;102842.59;;;11.48;49.71
66945;BME280;53853;51.982;5.928;2023-05-03T09:21:47;102841.03;;;11.58;49.57
66945;BME280;53853;51.982;5.928;2023-05-03T09:24:18;102841.34;;;11.67;49.04
66945;BME280;53853;51.982;5.928;2023-05-03T09:26:50;102844.00;;;11.67;48.64
66945;BME280;53853;51.982;5.928;2023-05-03T09:29:28;102850.09;;;11.69;48.49
66945;BME280;53853;51.982;5.928;2023-05-03T09:32:01;102843.56;;;11.73;47.98
66945;BME280;53853;51.982;5.928;2023-05-03T09:34:32;102852.31;;;11.75;47.82
66945;BME280;53853;51.982;5.928;2023-05-03T09:37:02;102842.41;;;11.77;48.23
66945;BME280;53853;51.982;5.928;2023-05-03T09:39:32;102837.81;;;11.79;48.28
66945;BME280;53853;51.982;5.928;2023-05-03T09:42:10;102834.81;;;11.84;48.20
66945;BME280;53853;51.982;5.928;2023-05-03T09:44:42;102843.34;;;11.89;48.41
66945;BME280;53853;51.982;5.928;2023-05-03T09:47:17;102833.88;;;11.98;48.62
66945;BME280;53853;51.982;5.928;2023-05-03T09:49:47;102835.66;;;11.97;48.42
66945;BME280;53853;51.982;5.928;2023-05-03T09:52:17;102833.53;;;12.02;48.58
66945;BME280;53853;51.982;5.928;2023-05-03T09:54:48;102833.84;;;12.10;48.08
66945;BME280;53853;51.982;5.928;2023-05-03T09:57:18;102836.78;;;12.19;47.44
66945;BME280;53853;51.982;5.928;2023-05-03T09:59:48;102839.88;;;12.25;47.66
66945;BME280;53853;51.982;5.928;2023-05-03T10:02:21;102838.69;;;12.29;47.68
66945;BME280;53853;51.982;5.928;2023-05-03T10:04:52;102836.88;;;12.30;47.24
66945;BME280;53853;51.982;5.928;2023-05-03T10:07:25;102827.56;;;12.36;47.19
66945;BME280;53853;51.982;5.928;2023-05-03T10:09:57;102834.25;;;12.41;47.73
66945;BME280;53853;51.982;5.928;2023-05-03T10:12:27;102831.47;;;12.43;47.23
66945;BME280;53853;51.982;5.928;2023-05-03T10:15:01;102838.81;;;12.52;47.31
66945;BME280;53853;51.982;5.928;2023-05-03T10:17:37;102835.69;;;12.58;46.95
66945;BME280;53853;51.982;5.928;2023-05-03T10:20:13;102832.69;;;12.63;46.55
66945;BME280;53853;51.982;5.928;2023-05-03T10:23:06;102834.13;;;12.67;46.18
66945;BME280;53853;51.982;5.928;2023-05-03T10:25:37;102832.34;;;12.67;46.54
66945;BME280;53853;51.982;5.928;2023-05-03T10:28:08;102831.00;;;12.73;46.58
66945;BME280;53853;51.982;5.928;2023-05-03T10:30:39;102826.81;;;12.82;46.50
66945;BME280;53853;51.982;5.928;2023-05-03T10:33:39;102826.56;;;12.85;45.94
66945;BME280;53853;51.982;5.928;2023-05-03T10:36:13;102830.81;;;12.87;46.16
66945;BME280;53853;51.982;5.928;2023-05-03T10:38:42;102816.25;;;12.92;45.26
66945;BME280;53853;51.982;5.928;2023-05-03T10:41:12;102810.91;;;12.92;44.86
66945;BME280;53853;51.982;5.928;2023-05-03T10:43:43;102811.13;;;12.89;45.18
66945;BME280;53853;51.982;5.928;2023-05-03T10:46:32;102816.88;;;12.95;45.91
66945;BME280;53853;51.982;5.928;2023-05-03T10:49:22;102807.38;;;12.91;45.60
66945;BME280;53853;51.982;5.928;2023-05-03T10:51:53;102807.53;;;13.01;46.52
66945;BME280;53853;51.982;5.928;2023-05-03T10:54:22;102806.47;;;13.15;46.79
66945;BME280;53853;51.982;5.928;2023-05-03T10:56:54;102806.59;;;13.25;45.38
66945;BME280;53853;51.982;5.928;2023-05-03T10:59:25;102803.81;;;13.26;44.78
66945;BME280;53853;51.982;5.928;2023-05-03T11:02:16;102809.66;;;13.31;44.04
66945;BME280;53853;51.982;5.928;2023-05-03T11:04:53;102796.06;;;13.34;44.14
66945;BME280;53853;51.982;5.928;2023-05-03T11:07:24;102793.88;;;13.39;44.32
66945;BME280;53853;51.982;5.928;2023-05-03T11:09:55;102797.03;;;13.45;43.92
66945;BME280;53853;51.982;5.928;2023-05-03T11:12:25;102797.78;;;13.47;44.04
66945;BME280;53853;51.982;5.928;2023-05-03T11:14:55;102799.94;;;13.41;43.78
66945;BME280;53853;51.982;5.928;2023-05-03T11:17:25;102791.66;;;13.45;44.37
66945;BME280;53853;51.982;5.928;2023-05-03T11:19:57;102781.47;;;13.50;44.32
66945;BME280;53853;51.982;5.928;2023-05-03T11:22:27;102765.41;;;13.50;43.85
66945;BME280;53853;51.982;5.928;2023-05-03T11:24:57;102772.06;;;13.55;42.90
66945;BME280;53853;51.982;5.928;2023-05-03T11:27:27;102767.31;;;13.59;43.00
66945;BME280;53853;51.982;5.928;2023-05-03T11:29:57;102770.13;;;13.57;42.32
66945;BME280;53853;51.982;5.928;2023-05-03T11:32:27;102768.56;;;13.55;42.42
66945;BME280;53853;51.982;5.928;2023-05-03T11:35:01;102771.00;;;13.58;42.52
66945;BME280;53853;51.982;5.928;2023-05-03T11:37:31;102765.88;;;13.66;43.02
66945;BME280;53853;51.982;5.928;2023-05-03T11:40:02;102761.00;;;13.71;43.15
66945;BME280;53853;51.982;5.928;2023-05-03T11:42:32;102760.25;;;13.81;42.96
66945;BME280;53853;51.982;5.928;2023-05-03T11:45:02;102763.91;;;13.80;42.44
66945;BME280;53853;51.982;5.928;2023-05-03T11:47:33;102747.31;;;13.86;42.57
66945;BME280;53853;51.982;5.928;2023-05-03T11:50:08;102748.53;;;13.93;42.57
66945;BME280;53853;51.982;5.928;2023-05-03T11:52:38;102736.31;;;14.00;42.93
66945;BME280;53853;51.982;5.928;2023-05-03T11:55:11;102744.00;;;14.05;41.66
66945;BME280;53853;51.982;5.928;2023-05-03T11:57:42;102735.09;;;14.04;41.97
66945;BME280;53853;51.982;5.928;2023-05-03T12:00:13;102739.47;;;14.17;42.11
66945;BME280;53853;51.982;5.928;2023-05-03T12:02:46;102736.75;;;14.28;41.00
66945;BME280;53853;51.982;5.928;2023-05-03T12:05:19;102725.97;;;14.39;41.29
66945;BME280;53853;51.982;5.928;2023-05-03T12:07:50;102728.50;;;14.41;41.36
66945;BME280;53853;51.982;5.928;2023-05-03T12:10:21;102730.94;;;14.44;41.10
66945;BME280;53853;51.982;5.928;2023-05-03T12:12:54;102732.53;;;14.46;41.12
66945;BME280;53853;51.982;5.928;2023-05-03T12:15:30;102732.53;;;14.46;40.74
66945;BME280;53853;51.982;5.928;2023-05-03T12:18:01;102727.63;;;14.52;40.72
66945;BME280;53853;51.982;5.928;2023-05-03T12:20:34;102723.41;;;14.59;40.95
66945;BME280;53853;51.982;5.928;2023-05-03T12:23:06;102716.16;;;14.61;41.00
66945;BME280;53853;51.982;5.928;2023-05-03T12:25:37;102718.94;;;14.59;41.05
66945;BME280;53853;51.982;5.928;2023-05-03T12:28:06;102706.97;;;14.63;41.29
66945;BME280;53853;51.982;5.928;2023-05-03T12:30:36;102704.16;;;14.65;41.03
66945;BME280;53853;51.982;5.928;2023-05-03T12:33:06;102706.44;;;14.70;40.62
66945;BME280;53853;51.982;5.928;2023-05-03T12:35:39;102700.50;;;14.66;40.34
66945;BME280;53853;51.982;5.928;2023-05-03T12:38:08;102700.69;;;14.74;40.83
66945;BME280;53853;51.982;5.928;2023-05-03T12:40:39;102697.75;;;14.77;40.33
66945;BME280;53853;51.982;5.928;2023-05-03T12:43:09;102691.13;;;14.81;40.52
66945;BME280;53853;51.982;5.928;2023-05-03T12:45:39;102688.19;;;14.84;38.89
66945;BME280;53853;51.982;5.928;2023-05-03T12:48:08;102689.75;;;14.87;39.58
66945;BME280;53853;51.982;5.928;2023-05-03T12:50:41;102680.06;;;14.96;40.28
66945;BME280;53853;51.982;5.928;2023-05-03T12:53:11;102679.66;;;15.00;39.72
66945;BME280;53853;51.982;5.928;2023-05-03T12:55:41;102676.63;;;14.94;38.82
66945;BME280;53853;51.982;5.928;2023-05-03T12:58:11;102672.13;;;14.94;39.32
66945;BME280;53853;51.982;5.928;2023-05-03T13:00:41;102669.31;;;14.96;38.39
66945;BME280;53853;51.982;5.928;2023-05-03T13:03:11;102665.34;;;15.00;38.59
66945;BME280;53853;51.982;5.928;2023-05-03T13:05:43;102658.19;;;15.00;39.14
66945;BME280;53853;51.982;5.928;2023-05-03T13:08:13;102655.78;;;15.07;38.88
66945;BME280;53853;51.982;5.928;2023-05-03T13:10:43;102648.44;;;15.09;38.64
66945;BME280;53853;51.982;5.928;2023-05-03T13:13:13;102640.94;;;15.03;39.18
66945;BME280;53853;51.982;5.928;2023-05-03T13:15:43;102637.97;;;15.06;39.24
66945;BME280;53853;51.982;5.928;2023-05-03T13:18:13;102637.00;;;15.07;38.69